createdAt,value
2022-12-11T00:00:43.910Z,92999.37
2022-12-11T00:03:31.831Z,92992.09
2022-12-11T00:05:59.713Z,92994.06
2022-12-11T00:08:27.650Z,92988.77
2022-12-11T00:10:55.569Z,92980.30
2022-12-11T00:13:23.497Z,92978.65
2022-12-11T00:15:51.376Z,92979.46
2022-12-11T00:18:19.672Z,92978.67
2022-12-11T00:20:47.646Z,92976.09
2022-12-11T00:23:15.699Z,92976.97
2022-12-11T00:25:44.829Z,92969.48
2022-12-11T00:28:13.141Z,92966.71
2022-12-11T00:30:42.632Z,92964.85
2022-12-11T00:33:11.845Z,92955.73
2022-12-11T00:35:40.885Z,92950.99
2022-12-11T00:38:09.070Z,92945.68
2022-12-11T00:40:37.398Z,92944.58
2022-12-11T00:43:05.411Z,92955.71
2022-12-11T00:45:36.167Z,92950.46
2022-12-11T00:48:04.205Z,92943.12
2022-12-11T00:50:32.582Z,92936.96
2022-12-11T00:53:00.787Z,92933.52
2022-12-11T00:55:29.355Z,92926.77
2022-12-11T00:57:58.543Z,92924.23
2022-12-11T01:00:26.471Z,92918.02
2022-12-11T01:02:54.653Z,92911.24
2022-12-11T01:05:23.084Z,92907.13
2022-12-11T01:07:50.972Z,92904.69
2022-12-11T01:10:24.846Z,92900.84
2022-12-11T01:12:57.504Z,92900.44
2022-12-11T01:15:26.915Z,92902.12
2022-12-11T01:17:55.063Z,92907.14
2022-12-11T01:20:23.772Z,92901.82
2022-12-11T01:22:56.114Z,92899.21
2022-12-11T01:25:24.647Z,92899.58
2022-12-11T01:27:53.701Z,92902.56
2022-12-11T01:30:23.309Z,92900.88
2022-12-11T01:32:51.165Z,92897.90
2022-12-11T01:35:19.383Z,92897.62
2022-12-11T01:37:47.693Z,92894.20
2022-12-11T01:40:18.193Z,92895.80
2022-12-11T01:42:46.167Z,92891.61
2022-12-11T01:45:26.688Z,92890.73
2022-12-11T01:48:06.494Z,92886.72
2022-12-11T01:50:36.238Z,92878.55
2022-12-11T01:53:06.245Z,92867.55
2022-12-11T01:55:34.635Z,92863.02
2022-12-11T01:58:02.695Z,92856.80
2022-12-11T02:00:30.674Z,92854.02
2022-12-11T02:02:58.544Z,92849.86
2022-12-11T02:05:26.826Z,92850.26
2022-12-11T02:07:57.209Z,92847.89
2022-12-11T02:10:32.098Z,92844.33
2022-12-11T02:13:13.126Z,92846.80
2022-12-11T02:16:03.891Z,92846.11
2022-12-11T02:18:34.626Z,92846.40
2022-12-11T02:21:07.732Z,92846.01
2022-12-11T02:23:47.904Z,92843.25
2022-12-11T02:26:32.251Z,92840.11
2022-12-11T02:29:07.469Z,92832.14
2022-12-11T02:31:46.939Z,92827.17
2022-12-11T02:34:28.882Z,92825.41
2022-12-11T02:37:00.651Z,92824.81
2022-12-11T02:39:29.633Z,92822.89
2022-12-11T02:41:58.419Z,92818.67
2022-12-11T02:44:29.578Z,92817.20
2022-12-11T02:46:58.562Z,92816.48
2022-12-11T02:49:27.684Z,92817.56
2022-12-11T02:51:56.780Z,92818.98
2022-12-11T02:54:30.482Z,92814.15
2022-12-11T02:56:58.870Z,92808.55
2022-12-11T02:59:31.163Z,92809.77
2022-12-11T03:01:59.532Z,92806.53
2022-12-11T03:04:28.531Z,92809.83
2022-12-11T03:07:00.203Z,92806.24
2022-12-11T03:09:28.673Z,92809.52
2022-12-11T03:11:56.636Z,92798.10
2022-12-11T03:14:24.527Z,92802.61
2022-12-11T03:16:57.006Z,92801.23
2022-12-11T03:19:36.591Z,92806.05
2022-12-11T03:22:12.515Z,92802.24
2022-12-11T03:24:43.455Z,92795.86
2022-12-11T03:27:14.198Z,92789.27
2022-12-11T03:29:48.296Z,92782.86
2022-12-11T03:32:20.194Z,92782.95
2022-12-11T03:34:58.143Z,92777.17
2022-12-11T03:37:29.074Z,92764.33
2022-12-11T03:39:59.404Z,92768.92
2022-12-11T03:42:27.759Z,92751.11
2022-12-11T03:44:57.419Z,92748.05
2022-12-11T03:47:27.220Z,92744.02
2022-12-11T03:49:56.710Z,92738.65
2022-12-11T03:52:27.373Z,92728.81
2022-12-11T03:54:58.306Z,92725.95
2022-12-11T03:57:27.614Z,92716.38
2022-12-11T03:59:55.492Z,92716.74
2022-12-11T04:02:23.416Z,92715.84
2022-12-11T04:04:51.316Z,92711.48
2022-12-11T04:07:19.294Z,92717.01
2022-12-11T04:09:47.164Z,92717.55
2022-12-11T04:12:15.060Z,92714.80
2022-12-11T04:15:01.885Z,92719.77
2022-12-11T04:17:52.948Z,92722.13
2022-12-11T04:20:40.101Z,92717.39
2022-12-11T04:23:31.109Z,92710.17
2022-12-11T04:26:10.236Z,92712.21
2022-12-11T04:28:38.251Z,92710.67
2022-12-11T04:31:06.466Z,92711.73
2022-12-11T04:33:34.692Z,92715.73
2022-12-11T04:36:02.665Z,92715.61
2022-12-11T04:38:30.542Z,92716.71
2022-12-11T04:41:09.244Z,92716.66
2022-12-11T04:43:37.567Z,92719.29
2022-12-11T04:46:06.219Z,92714.56
2022-12-11T04:48:34.574Z,92712.29
2022-12-11T04:51:02.725Z,92705.21
2022-12-11T04:53:30.807Z,92708.84
2022-12-11T04:55:58.685Z,92713.15
2022-12-11T04:58:26.986Z,92714.47
2022-12-11T05:00:54.832Z,92708.27
2022-12-11T05:03:22.666Z,92709.27
2022-12-11T05:05:51.994Z,92712.02
2022-12-11T05:08:21.059Z,92713.25
2022-12-11T05:10:56.864Z,92715.30
2022-12-11T05:13:24.930Z,92715.69
2022-12-11T05:15:52.815Z,92719.36
2022-12-11T05:18:21.425Z,92726.92
2022-12-11T05:20:59.426Z,92737.55
2022-12-11T05:23:27.903Z,92742.21
2022-12-11T05:25:57.240Z,92742.52
2022-12-11T05:28:26.334Z,92747.04
2022-12-11T05:31:01.859Z,92752.86
2022-12-11T05:33:30.056Z,92751.38
2022-12-11T05:35:58.008Z,92732.47
2022-12-11T05:38:25.999Z,92739.00
2022-12-11T05:41:04.827Z,92744.83
2022-12-11T05:43:34.231Z,92760.91
2022-12-11T05:46:09.461Z,92746.59
2022-12-11T05:48:37.907Z,92731.11
2022-12-11T05:51:06.370Z,92731.09
2022-12-11T05:53:35.199Z,92730.50
2022-12-11T05:56:04.286Z,92724.16
2022-12-11T05:58:32.623Z,92721.30
2022-12-11T06:01:00.518Z,92726.09
2022-12-11T06:03:28.576Z,92734.92
2022-12-11T06:05:56.419Z,92741.28
2022-12-11T06:08:24.395Z,92749.09
2022-12-11T06:10:52.504Z,92758.37
2022-12-11T06:13:20.402Z,92764.35
2022-12-11T06:15:48.286Z,92766.09
2022-12-11T06:18:16.210Z,92761.88
2022-12-11T06:20:44.041Z,92765.87
2022-12-11T06:23:11.922Z,92767.64
2022-12-11T06:25:40.465Z,92772.06
2022-12-11T06:28:08.475Z,92771.42
2022-12-11T06:30:38.997Z,92772.90
2022-12-11T06:33:07.486Z,92766.21
2022-12-11T06:35:41.766Z,92768.27
2022-12-11T06:38:10.924Z,92764.52
2022-12-11T06:40:39.014Z,92766.52
2022-12-11T06:43:06.916Z,92768.29
2022-12-11T06:45:34.816Z,92766.84
2022-12-11T06:48:03.299Z,92775.53
2022-12-11T06:50:31.353Z,92781.67
2022-12-11T06:52:59.487Z,92781.13
2022-12-11T06:55:27.565Z,92784.26
2022-12-11T06:57:55.838Z,92785.61
2022-12-11T07:00:23.746Z,92783.63
2022-12-11T07:02:51.686Z,92779.47
2022-12-11T07:05:19.693Z,92782.43
2022-12-11T07:07:47.685Z,92786.00
2022-12-11T07:10:15.880Z,92789.86
2022-12-11T07:12:43.749Z,92806.19
2022-12-11T07:15:12.039Z,92812.48
2022-12-11T07:17:40.303Z,92820.88
2022-12-11T07:20:09.226Z,92825.61
2022-12-11T07:22:41.595Z,92813.73
2022-12-11T07:25:12.991Z,92821.52
2022-12-11T07:27:41.782Z,92825.88
2022-12-11T07:30:10.794Z,92827.27
2022-12-11T07:32:38.856Z,92840.45
2022-12-11T07:35:07.223Z,92858.98
2022-12-11T07:37:35.070Z,92860.62
2022-12-11T07:40:03.108Z,92872.13
2022-12-11T07:42:31.122Z,92897.25
2022-12-11T07:44:58.972Z,92897.65
2022-12-11T07:47:26.816Z,92895.65
2022-12-11T07:49:54.717Z,92899.48
2022-12-11T07:52:22.666Z,92902.88
2022-12-11T07:54:51.202Z,92907.48
2022-12-11T07:57:19.204Z,92906.56
2022-12-11T07:59:47.067Z,92910.52
2022-12-11T08:02:14.916Z,92909.89
2022-12-11T08:04:42.839Z,92904.25
2022-12-11T08:07:10.712Z,92899.31
2022-12-11T08:09:38.644Z,92925.27
2022-12-11T08:12:06.561Z,92933.27
2022-12-11T08:14:34.465Z,92944.63
2022-12-11T08:17:02.700Z,92961.28
2022-12-11T08:19:31.348Z,92977.99
2022-12-11T08:21:59.381Z,92983.45
2022-12-11T08:24:27.735Z,92985.40
2022-12-11T08:26:55.559Z,93000.16
2022-12-11T08:29:23.423Z,93009.48
2022-12-11T08:31:51.436Z,93028.03
2022-12-11T08:34:19.398Z,93048.89
2022-12-11T08:36:47.572Z,93063.64
2022-12-11T08:39:15.572Z,93063.90
2022-12-11T08:41:43.406Z,93058.22
2022-12-11T08:44:16.873Z,93076.38
2022-12-11T08:46:46.025Z,93089.83
2022-12-11T08:49:13.886Z,93101.42
2022-12-11T08:51:41.802Z,93101.15
2022-12-11T08:54:11.087Z,93113.12
2022-12-11T08:56:38.951Z,93104.34
2022-12-11T08:59:07.442Z,93114.41
2022-12-11T09:01:35.463Z,93124.98
2022-12-11T09:04:03.834Z,93129.13
2022-12-11T09:06:32.848Z,93131.87
2022-12-11T09:09:01.686Z,93133.57
2022-12-11T09:11:31.301Z,93141.80
2022-12-11T09:14:03.752Z,93154.93
2022-12-11T09:16:37.874Z,93156.40
2022-12-11T09:19:07.413Z,93160.54
2022-12-11T09:21:35.387Z,93159.00
2022-12-11T09:24:03.779Z,93164.02
2022-12-11T09:26:31.947Z,93167.95
2022-12-11T09:29:03.571Z,93175.52
2022-12-11T09:31:32.948Z,93181.73
2022-12-11T09:34:02.017Z,93182.48
2022-12-11T09:36:30.573Z,93176.89
2022-12-11T09:39:06.063Z,93169.20
2022-12-11T09:41:38.642Z,93167.55
2022-12-11T09:44:06.610Z,93158.45
2022-12-11T09:46:35.500Z,93153.24
2022-12-11T09:49:04.839Z,93160.88
2022-12-11T09:51:39.592Z,93160.30
2022-12-11T09:54:09.574Z,93163.77
2022-12-11T09:56:40.500Z,93167.70
2022-12-11T09:59:25.896Z,93189.23
2022-12-11T10:01:59.840Z,93202.27
2022-12-11T10:04:27.844Z,93222.58
2022-12-11T10:07:04.945Z,93231.58
2022-12-11T10:10:05.204Z,93242.30
2022-12-11T10:12:33.714Z,93243.00
2022-12-11T10:15:11.175Z,93250.83
2022-12-11T10:17:40.492Z,93251.98
2022-12-11T10:20:31.537Z,93252.59
2022-12-11T10:22:59.626Z,93249.73
2022-12-11T10:25:40.223Z,93248.25
2022-12-11T10:28:15.267Z,93246.76
2022-12-11T10:30:55.401Z,93252.31
2022-12-11T10:33:31.646Z,93251.55
2022-12-11T10:35:59.688Z,93259.04
2022-12-11T10:38:29.699Z,93266.12
2022-12-11T10:41:01.814Z,93278.35
2022-12-11T10:43:37.120Z,93288.91
2022-12-11T10:46:06.717Z,93292.33
2022-12-11T10:48:34.717Z,93292.64
2022-12-11T10:51:04.764Z,93287.60
2022-12-11T10:53:33.955Z,93285.44
2022-12-11T10:56:02.597Z,93299.05
2022-12-11T10:58:34.368Z,93301.70
2022-12-11T11:01:11.037Z,93305.80
2022-12-11T11:03:51.676Z,93318.58
2022-12-11T11:06:20.741Z,93325.80
2022-12-11T11:08:56.493Z,93329.67
2022-12-11T11:11:24.379Z,93329.82
2022-12-11T11:13:52.862Z,93325.91
2022-12-11T11:16:22.348Z,93326.67
2022-12-11T11:18:52.825Z,93326.45
2022-12-11T11:21:22.841Z,93322.46
2022-12-11T11:23:53.582Z,93324.94
2022-12-11T11:26:38.250Z,93325.17
2022-12-11T11:29:23.406Z,93325.73
2022-12-11T11:31:51.409Z,93326.72
2022-12-11T11:34:21.264Z,93337.77
2022-12-11T11:36:56.907Z,93342.63
2022-12-11T11:39:34.058Z,93345.36
2022-12-11T11:42:07.750Z,93352.23
2022-12-11T11:44:58.537Z,93355.48
2022-12-11T11:47:30.020Z,93351.02
2022-12-11T11:50:17.246Z,93347.94
2022-12-11T11:52:58.922Z,93353.19
2022-12-11T11:55:45.851Z,93360.86
2022-12-11T11:58:16.187Z,93367.36
2022-12-11T12:00:44.080Z,93367.02
2022-12-11T12:03:19.243Z,93372.88
2022-12-11T12:06:02.638Z,93386.73
2022-12-11T12:08:33.839Z,93391.18
2022-12-11T12:11:08.120Z,93388.17
2022-12-11T12:13:51.246Z,93384.69
2022-12-11T12:19:22.312Z,93379.79
2022-12-11T12:21:53.128Z,93377.23
2022-12-11T12:24:47.023Z,93366.55
2022-12-11T12:27:53.832Z,93367.36
2022-12-11T12:30:23.614Z,93379.05
2022-12-11T12:33:02.283Z,93388.79
2022-12-11T12:35:36.271Z,93395.66
2022-12-11T12:38:33.408Z,93394.02
2022-12-11T12:41:19.829Z,93391.29
2022-12-11T12:44:01.155Z,93392.19
2022-12-11T12:46:38.615Z,93405.77
2022-12-11T12:49:10.917Z,93412.20
2022-12-11T12:51:39.992Z,93414.34
2022-12-11T12:54:12.439Z,93409.38
2022-12-11T12:56:43.736Z,93412.10
2022-12-11T12:59:22.550Z,93413.86
2022-12-11T13:01:57.176Z,93424.77
2022-12-11T13:04:55.149Z,93428.27
2022-12-11T13:07:30.326Z,93440.67
2022-12-11T13:10:01.801Z,93446.27
2022-12-11T13:12:31.998Z,93448.92
2022-12-11T13:15:00.142Z,93454.84
2022-12-11T13:17:38.944Z,93460.89
2022-12-11T13:20:11.980Z,93464.04
2022-12-11T13:22:58.655Z,93451.58
2022-12-11T13:25:28.716Z,93460.55
2022-12-11T13:28:07.250Z,93466.33
2022-12-11T13:30:35.230Z,93468.88
2022-12-11T13:33:17.732Z,93466.83
2022-12-11T13:35:45.604Z,93463.33
2022-12-11T13:38:16.959Z,93468.32
2022-12-11T13:40:46.877Z,93462.48
2022-12-11T13:43:27.060Z,93464.66
2022-12-11T13:45:56.380Z,93477.11
2022-12-11T13:48:27.492Z,93477.64
2022-12-11T13:50:56.451Z,93484.29
2022-12-11T13:53:24.504Z,93485.02
2022-12-11T13:55:56.845Z,93490.45
2022-12-11T13:58:25.327Z,93491.01
2022-12-11T14:00:57.104Z,93492.41
2022-12-11T14:03:25.434Z,93502.84
2022-12-11T14:05:54.069Z,93510.31
2022-12-11T14:08:24.161Z,93518.44
2022-12-11T14:10:55.541Z,93516.40
2022-12-11T14:13:30.380Z,93516.77
2022-12-11T14:15:58.351Z,93521.30
2022-12-11T14:18:30.890Z,93529.92
2022-12-11T14:21:03.210Z,93532.34
2022-12-11T14:23:32.617Z,93533.98
2022-12-11T14:26:00.589Z,93541.41
2022-12-11T14:28:30.617Z,93550.94
2022-12-11T14:30:59.800Z,93557.00
2022-12-11T14:33:57.062Z,93550.67
2022-12-11T14:36:26.216Z,93552.53
2022-12-11T14:39:02.752Z,93551.45
2022-12-11T14:41:42.087Z,93550.88
2022-12-11T14:44:13.338Z,93553.20
2022-12-11T14:46:46.640Z,93554.40
2022-12-11T14:49:23.218Z,93559.54
2022-12-11T14:51:52.110Z,93561.14
2022-12-11T14:54:40.723Z,93565.21
2022-12-11T14:57:14.394Z,93568.08
2022-12-11T14:59:45.734Z,93573.99
2022-12-11T15:02:25.261Z,93574.45
2022-12-11T15:05:23.046Z,93577.02
2022-12-11T15:08:14.179Z,93579.09
2022-12-11T15:10:55.569Z,93585.09
2022-12-11T15:13:24.039Z,93593.62
2022-12-11T15:15:53.143Z,93603.59
2022-12-11T15:18:26.179Z,93606.16
2022-12-11T15:20:56.156Z,93599.85
2022-12-11T15:23:24.154Z,93613.54
2022-12-11T15:25:53.945Z,93611.83
2022-12-11T15:28:39.966Z,93626.77
2022-12-11T15:31:22.352Z,93626.59
2022-12-11T15:33:50.327Z,93626.70
2022-12-11T15:36:24.459Z,93624.02
2022-12-11T15:38:52.791Z,93624.44
2022-12-11T15:41:21.653Z,93620.82
2022-12-11T15:43:53.938Z,93621.38
2022-12-11T15:46:24.865Z,93623.17
2022-12-11T15:48:53.210Z,93624.61
2022-12-11T15:51:21.377Z,93632.11
2022-12-11T15:53:49.512Z,93637.77
2022-12-11T15:56:18.585Z,93640.68
2022-12-11T15:58:47.508Z,93643.60
2022-12-11T16:01:15.544Z,93640.54
2022-12-11T16:03:43.627Z,93640.83
2022-12-11T16:06:13.454Z,93640.15
2022-12-11T16:08:41.420Z,93643.42
2022-12-11T16:11:12.380Z,93641.52
2022-12-11T16:13:40.327Z,93638.24
2022-12-11T16:16:08.242Z,93647.73
2022-12-11T16:18:36.185Z,93650.89
2022-12-11T16:21:05.387Z,93651.01
2022-12-11T16:23:33.357Z,93640.92
2022-12-11T16:26:05.995Z,93645.89
2022-12-11T16:28:34.067Z,93657.64
2022-12-11T16:31:02.109Z,93658.46
2022-12-11T16:33:30.477Z,93653.27
2022-12-11T16:35:59.288Z,93648.11
2022-12-11T16:38:27.360Z,93651.17
2022-12-11T16:41:01.875Z,93652.06
2022-12-11T16:43:29.844Z,93654.19
2022-12-11T16:45:57.798Z,93647.71
2022-12-11T16:48:25.894Z,93648.27
2022-12-11T16:50:54.757Z,93652.77
2022-12-11T16:53:22.970Z,93653.64
2022-12-11T16:55:50.931Z,93662.39
2022-12-11T16:58:21.799Z,93668.29
2022-12-11T17:00:50.184Z,93670.02
2022-12-11T17:03:19.291Z,93665.14
2022-12-11T17:05:47.350Z,93655.27
2022-12-11T17:08:15.411Z,93665.73
2022-12-11T17:10:43.570Z,93670.88
2022-12-11T17:13:11.476Z,93681.05
2022-12-11T17:15:41.131Z,93686.30
2022-12-11T17:18:09.373Z,93685.34
2022-12-11T17:20:41.864Z,93675.77
2022-12-11T17:23:10.752Z,93682.34
2022-12-11T17:25:42.927Z,93688.59
2022-12-11T17:28:11.547Z,93687.99
2022-12-11T17:30:41.934Z,93694.23
2022-12-11T17:33:10.975Z,93703.16
2022-12-11T17:35:39.582Z,93704.41
2022-12-11T17:38:07.786Z,93705.33
2022-12-11T17:40:35.755Z,93709.26
2022-12-11T17:43:06.517Z,93712.52
2022-12-11T17:45:34.492Z,93718.60
2022-12-11T17:48:02.493Z,93720.48
2022-12-11T17:50:30.439Z,93716.45
2022-12-11T17:52:58.528Z,93713.23
2022-12-11T17:55:26.522Z,93713.42
2022-12-11T17:57:54.643Z,93715.30
2022-12-11T18:00:24.540Z,93718.83
2022-12-11T18:02:53.368Z,93730.82
2022-12-11T18:05:22.179Z,93733.30
2022-12-11T18:07:55.889Z,93730.67
2022-12-11T18:10:26.015Z,93734.71
2022-12-11T18:12:53.824Z,93740.24
2022-12-11T18:15:21.963Z,93746.39
2022-12-11T18:17:49.985Z,93749.16
2022-12-11T18:20:17.921Z,93754.30
2022-12-11T18:22:45.989Z,93759.66
2022-12-11T18:25:14.111Z,93761.69
2022-12-11T18:27:42.447Z,93758.52
2022-12-11T18:30:12.594Z,93762.38
2022-12-11T18:32:41.773Z,93759.94
2022-12-11T18:35:10.865Z,93762.73
2022-12-11T18:37:39.478Z,93769.09
2022-12-11T18:40:08.188Z,93767.30
2022-12-11T18:42:36.339Z,93764.51
2022-12-11T18:45:04.753Z,93765.73
2022-12-11T18:47:33.007Z,93773.95
2022-12-11T18:50:07.092Z,93779.70
2022-12-11T18:52:35.616Z,93790.60
2022-12-11T18:55:03.933Z,93785.68
2022-12-11T18:57:32.374Z,93786.20
2022-12-11T19:00:07.631Z,93787.61
2022-12-11T19:02:35.904Z,93787.45
2022-12-11T19:05:04.606Z,93796.80
2022-12-11T19:07:32.559Z,93794.38
2022-12-11T19:10:00.747Z,93790.13
2022-12-11T19:12:28.666Z,93785.64
2022-12-11T19:14:57.004Z,93792.27
2022-12-11T19:17:24.980Z,93800.66
2022-12-11T19:19:53.335Z,93806.23
2022-12-11T19:22:21.508Z,93814.50
2022-12-11T19:24:49.414Z,93823.31
2022-12-11T19:27:17.429Z,93826.02
2022-12-11T19:29:45.367Z,93836.77
2022-12-11T19:32:13.218Z,93838.35
2022-12-11T19:34:41.345Z,93835.48
2022-12-11T19:37:09.634Z,93833.79
2022-12-11T19:39:40.853Z,93835.30
2022-12-11T19:42:08.853Z,93844.41
2022-12-11T19:44:36.828Z,93850.20
2022-12-11T19:47:05.290Z,93853.52
2022-12-11T19:49:33.376Z,93849.50
2022-12-11T19:52:01.358Z,93848.57
2022-12-11T19:54:29.329Z,93844.48
2022-12-11T19:56:57.544Z,93850.35
2022-12-11T19:59:25.455Z,93849.27
2022-12-11T20:01:53.787Z,93845.96
2022-12-11T20:04:21.765Z,93842.48
2022-12-11T20:06:49.706Z,93847.18
2022-12-11T20:09:18.188Z,93849.84
2022-12-11T20:11:47.714Z,93851.53
2022-12-11T20:14:18.558Z,93847.38
2022-12-11T20:17:10.058Z,93850.50
2022-12-11T20:19:35.299Z,93852.75
2022-12-11T20:22:03.575Z,93851.89
2022-12-11T20:24:31.656Z,93858.31
2022-12-11T20:27:00.452Z,93860.53
2022-12-11T20:29:29.357Z,93856.45
2022-12-11T20:31:59.804Z,93850.36
2022-12-11T20:34:28.087Z,93852.97
2022-12-11T20:36:56.416Z,93851.16
2022-12-11T20:39:24.538Z,93854.61
2022-12-11T20:41:52.605Z,93852.98
2022-12-11T20:44:20.576Z,93858.77
2022-12-11T20:46:48.429Z,93861.30
2022-12-11T20:49:16.635Z,93854.41
2022-12-11T20:51:44.705Z,93854.32
2022-12-11T20:54:13.499Z,93852.30
2022-12-11T20:56:42.416Z,93857.30
2022-12-11T20:59:10.879Z,93867.71
2022-12-11T21:01:40.411Z,93871.08
2022-12-11T21:04:08.679Z,93868.80
2022-12-11T21:06:37.675Z,93870.00
2022-12-11T21:09:17.795Z,93867.17
2022-12-11T21:11:46.030Z,93869.54
2022-12-11T21:14:14.504Z,93871.41
2022-12-11T21:16:42.660Z,93872.63
2022-12-11T21:19:17.058Z,93871.95
2022-12-11T21:21:45.912Z,93876.20
2022-12-11T21:24:17.896Z,93878.55
2022-12-11T21:26:46.267Z,93880.61
2022-12-11T21:29:14.487Z,93880.74
2022-12-11T21:31:42.981Z,93880.89
2022-12-11T21:34:11.218Z,93877.48
2022-12-11T21:36:39.059Z,93875.89
2022-12-11T21:39:07.068Z,93881.70
2022-12-11T21:41:34.936Z,93882.27
2022-12-11T21:46:51.065Z,93885.17
2022-12-11T21:49:19.144Z,93884.36
2022-12-11T21:51:47.809Z,93883.46
2022-12-11T21:54:17.143Z,93884.27
2022-12-11T21:56:45.523Z,93887.41
2022-12-11T21:59:13.510Z,93881.33
2022-12-11T22:01:45.989Z,93881.80
2022-12-11T22:04:14.657Z,93885.02
2022-12-11T22:06:43.762Z,93884.29
2022-12-11T22:09:13.096Z,93884.80
2022-12-11T22:11:41.977Z,93884.39
2022-12-11T22:14:15.497Z,93887.30
2022-12-11T22:16:44.163Z,93887.00
2022-12-11T22:19:12.382Z,93887.09
2022-12-11T22:21:40.431Z,93884.37
2022-12-11T22:24:08.329Z,93888.64
2022-12-11T22:26:36.567Z,93886.98
2022-12-11T22:29:04.436Z,93889.13
2022-12-11T22:31:32.514Z,93887.97
2022-12-11T22:34:00.392Z,93889.03
2022-12-11T22:36:28.555Z,93891.09
2022-12-11T22:38:56.561Z,93894.14
2022-12-11T22:41:26.288Z,93894.93
2022-12-11T22:43:54.657Z,93896.21
2022-12-11T22:46:23.986Z,93885.39
2022-12-11T22:48:52.259Z,93885.42
2022-12-11T22:51:20.738Z,93887.08
2022-12-11T22:53:48.913Z,93892.81
2022-12-11T22:56:17.399Z,93894.17
2022-12-11T22:58:45.306Z,93890.90
2022-12-11T23:01:14.814Z,93892.52
2022-12-11T23:03:42.946Z,93899.10
2022-12-11T23:06:12.377Z,93897.46
2022-12-11T23:08:41.608Z,93902.79
2022-12-11T23:11:17.434Z,93909.28
2022-12-11T23:13:45.517Z,93913.66
2022-12-11T23:16:14.014Z,93915.23
2022-12-11T23:18:42.165Z,93920.61
2022-12-11T23:21:10.790Z,93920.10
2022-12-11T23:23:38.791Z,93923.58
2022-12-11T23:26:08.715Z,93922.44
2022-12-11T23:28:36.977Z,93923.95
2022-12-11T23:31:05.762Z,93927.88
2022-12-11T23:33:33.712Z,93931.73
2022-12-11T23:36:02.055Z,93929.45
2022-12-11T23:38:29.979Z,93929.73
2022-12-11T23:40:59.494Z,93930.56
2022-12-11T23:43:27.478Z,93931.78
2022-12-11T23:45:55.542Z,93929.02
2022-12-11T23:48:24.144Z,93936.44
2022-12-11T23:50:52.106Z,93934.08
2022-12-11T23:53:20.075Z,93938.16
2022-12-11T23:55:47.975Z,93943.49
2022-12-11T23:58:15.871Z,93946.55
